createdAt,value
2019-04-20T00:00:01.053Z,81.2317
2019-04-20T00:00:08.125Z,81.3354
2019-04-20T00:00:14.443Z,81.3354
2019-04-20T00:00:25.295Z,81.3354
2019-04-20T00:00:36.344Z,81.2317
2019-04-20T00:00:44.047Z,81.2317
2019-04-20T00:00:50.719Z,81.2317
2019-04-20T00:00:55.055Z,81.1279
2019-04-20T00:01:01.434Z,81.1279
2019-04-20T00:01:05.385Z,81.0303
2019-04-20T00:01:12.631Z,80.9265
2019-04-20T00:01:22.794Z,80.8228
2019-04-20T00:01:30.288Z,80.7190
2019-04-20T00:01:34.415Z,80.7190
2019-04-20T00:01:40.772Z,80.7190
2019-04-20T00:01:44.924Z,80.6152
2019-04-20T00:01:48.881Z,80.6152
2019-04-20T00:01:55.999Z,80.6152
2019-04-20T00:02:07.387Z,80.6152
2019-04-20T00:02:14.374Z,80.5115
2019-04-20T00:02:19.402Z,80.5115
2019-04-20T00:02:25.714Z,80.5115
2019-04-20T00:02:29.600Z,80.4077
2019-04-20T00:02:33.678Z,80.4077
2019-04-20T00:02:37.734Z,80.4077
2019-04-20T00:02:44.026Z,80.4077
2019-04-20T00:02:53.498Z,80.4077
2019-04-20T00:03:00.034Z,80.4077
2019-04-20T00:03:05.706Z,80.5115
2019-04-20T00:03:09.695Z,80.4077
2019-04-20T00:03:13.833Z,80.4077
2019-04-20T00:03:18.067Z,80.4077
2019-04-20T00:03:24.739Z,80.4077
2019-04-20T00:03:35.279Z,80.3040
2019-04-20T00:03:41.751Z,80.2002
2019-04-20T00:03:47.343Z,80.1025
2019-04-20T00:03:53.529Z,80.1025
2019-04-20T00:03:57.453Z,79.9988
2019-04-20T00:04:01.139Z,79.9988
2019-04-20T00:04:05.341Z,79.9988
2019-04-20T00:04:10.835Z,79.9988
2019-04-20T00:04:23.404Z,79.9988
2019-04-20T00:04:31.928Z,79.8950
2019-04-20T00:04:35.705Z,79.6875
2019-04-20T00:04:41.127Z,79.5837
2019-04-20T00:04:45.202Z,79.4800
2019-04-20T00:04:49.452Z,79.3762
2019-04-20T00:04:52.737Z,79.1748
2019-04-20T00:04:57.068Z,79.0710
2019-04-20T00:05:01.178Z,78.9673
2019-04-20T00:05:05.315Z,78.7598
2019-04-20T00:05:09.392Z,78.6560
2019-04-20T00:05:13.479Z,78.5522
2019-04-20T00:05:16.989Z,78.3447
2019-04-20T00:05:21.553Z,78.2104
2019-04-20T00:05:25.171Z,78.1067
2019-04-20T00:05:27.591Z,78.0029
2019-04-20T00:05:30.929Z,78.0029
2019-04-20T00:05:35.027Z,77.8992
2019-04-20T00:05:39.291Z,77.8992
2019-04-20T00:05:43.454Z,77.8992
2019-04-20T00:05:46.688Z,77.8992
2019-04-20T00:05:49.025Z,77.8992
2019-04-20T00:05:53.095Z,78.0029
2019-04-20T00:05:57.340Z,78.0029
2019-04-20T00:06:01.445Z,78.0029
2019-04-20T00:06:04.767Z,78.0029
2019-04-20T00:06:09.185Z,78.0029
2019-04-20T00:06:13.138Z,78.0029
2019-04-20T00:06:17.353Z,78.1067
2019-04-20T00:06:21.504Z,78.1067
2019-04-20T00:06:25.076Z,78.1067
2019-04-20T00:06:32.605Z,78.2104
2019-04-20T00:06:40.648Z,78.3081
2019-04-20T00:06:48.538Z,78.4119
2019-04-20T00:06:54.359Z,78.4119
2019-04-20T00:06:59.193Z,78.5156
2019-04-20T00:07:01.964Z,78.5156
2019-04-20T00:07:05.999Z,78.4119
2019-04-20T00:07:10.187Z,78.4119
2019-04-20T00:07:14.211Z,78.4119
2019-04-20T00:07:18.712Z,78.3081
2019-04-20T00:07:30.980Z,78.3081
2019-04-20T00:07:37.480Z,78.3081
2019-04-20T00:07:41.856Z,78.3081
2019-04-20T00:07:45.921Z,78.2104
2019-04-20T00:07:50.163Z,78.2104
2019-04-20T00:07:54.096Z,78.1067
2019-04-20T00:08:03.235Z,78.0029
2019-04-20T00:08:09.101Z,77.8992
2019-04-20T00:08:21.081Z,77.6917
2019-04-20T00:08:26.506Z,77.5879
2019-04-20T00:08:34.508Z,77.4841
2019-04-20T00:08:41.167Z,77.4841
2019-04-20T00:08:47.423Z,77.4841
2019-04-20T00:08:59.884Z,77.4841
2019-04-20T00:09:08.809Z,77.4841
2019-04-20T00:09:15.398Z,77.4841
2019-04-20T00:09:21.329Z,77.5879
2019-04-20T00:09:29.080Z,77.5879
2019-04-20T00:09:37.995Z,77.6917
2019-04-20T00:09:45.420Z,77.7954
2019-04-20T00:09:56.668Z,77.7954
2019-04-20T00:10:06.271Z,77.8992
2019-04-20T00:10:10.888Z,78.0029
2019-04-20T00:10:18.349Z,78.1067
2019-04-20T00:10:24.333Z,78.1067
2019-04-20T00:10:30.301Z,78.1433
2019-04-20T00:10:47.554Z,78.2410
2019-04-20T00:10:55.145Z,78.2410
2019-04-20T00:11:02.619Z,78.3447
2019-04-20T00:11:07.943Z,78.4485
2019-04-20T00:11:17.671Z,78.4485
2019-04-20T00:11:25.650Z,78.4485
2019-04-20T00:11:39.808Z,78.3447
2019-04-20T00:11:45.878Z,78.3447
2019-04-20T00:11:53.267Z,78.2410
2019-04-20T00:12:01.613Z,78.2410
2019-04-20T00:12:07.191Z,78.2410
2019-04-20T00:12:17.220Z,78.2410
2019-04-20T00:12:25.008Z,78.4485
2019-04-20T00:12:39.761Z,78.5522
2019-04-20T00:12:46.051Z,78.6560
2019-04-20T00:12:53.630Z,78.6560
2019-04-20T00:12:58.432Z,78.7964
2019-04-20T00:13:09.067Z,78.9001
2019-04-20T00:13:16.661Z,79.1077
2019-04-20T00:13:24.466Z,79.2114
2019-04-20T00:13:32.510Z,79.3091
2019-04-20T00:13:40.799Z,79.4128
2019-04-20T00:13:47.743Z,79.5166
2019-04-20T00:13:57.225Z,79.6204
2019-04-20T00:14:02.046Z,79.7241
2019-04-20T00:14:09.017Z,79.8279
2019-04-20T00:14:15.946Z,79.8279
2019-04-20T00:14:24.586Z,79.9316
2019-04-20T00:14:30.982Z,79.9316
2019-04-20T00:14:37.423Z,80.0354
2019-04-20T00:14:43.964Z,80.0354
2019-04-20T00:14:48.035Z,80.1392
2019-04-20T00:14:52.136Z,80.1392
2019-04-20T00:14:56.505Z,80.1392
2019-04-20T00:15:00.601Z,80.1392
2019-04-20T00:15:04.887Z,80.1392
2019-04-20T00:15:07.377Z,80.2368
2019-04-20T00:15:11.145Z,80.2368
2019-04-20T00:15:15.592Z,80.2368
2019-04-20T00:15:19.705Z,80.2368
2019-04-20T00:15:24.033Z,80.2368
2019-04-20T00:15:28.237Z,80.2368
2019-04-20T00:15:30.542Z,80.1392
2019-04-20T00:15:34.670Z,80.1392
2019-04-20T00:15:36.951Z,80.0354
2019-04-20T00:15:40.922Z,80.0354
2019-04-20T00:15:43.270Z,79.9316
2019-04-20T00:15:47.290Z,79.9316
2019-04-20T00:15:51.347Z,79.8279
2019-04-20T00:15:55.791Z,79.7241
2019-04-20T00:15:59.919Z,79.7241
2019-04-20T00:16:02.244Z,79.6204
2019-04-20T00:16:06.217Z,79.6204
2019-04-20T00:16:10.357Z,79.5166
2019-04-20T00:16:14.764Z,79.5166
2019-04-20T00:16:18.906Z,79.5166
2019-04-20T00:16:23.094Z,79.4128
2019-04-20T00:16:27.228Z,79.4128
2019-04-20T00:16:31.803Z,79.3091
2019-04-20T00:16:35.686Z,79.3091
2019-04-20T00:16:39.885Z,79.2114
2019-04-20T00:16:44.162Z,79.2114
2019-04-20T00:16:48.325Z,79.1077
2019-04-20T00:16:52.776Z,79.1077
2019-04-20T00:16:56.918Z,79.2114
2019-04-20T00:17:01.014Z,79.2114
2019-04-20T00:17:07.202Z,79.2114
2019-04-20T00:17:11.615Z,79.2114
2019-04-20T00:17:15.864Z,79.2114
2019-04-20T00:17:19.961Z,79.1748
2019-04-20T00:17:25.046Z,79.1748
2019-04-20T00:17:28.836Z,79.1748
2019-04-20T00:17:32.727Z,79.1748
2019-04-20T00:17:39.395Z,79.1748
2019-04-20T00:17:48.639Z,79.0710
2019-04-20T00:17:57.179Z,79.0710
2019-04-20T00:18:04.660Z,78.9673
2019-04-20T00:18:10.104Z,78.9673
2019-04-20T00:18:15.297Z,78.8635
2019-04-20T00:18:19.187Z,78.8635
2019-04-20T00:18:28.053Z,78.7598
2019-04-20T00:18:34.744Z,78.6560
2019-04-20T00:18:46.150Z,78.5522
2019-04-20T00:18:51.934Z,78.4485
2019-04-20T00:18:59.165Z,78.4485
2019-04-20T00:19:05.375Z,78.4485
2019-04-20T00:19:17.267Z,78.4485
2019-04-20T00:19:26.186Z,78.3447
2019-04-20T00:19:36.154Z,78.2410
2019-04-20T00:19:42.311Z,78.2410
2019-04-20T00:19:47.541Z,78.1433
2019-04-20T00:19:54.574Z,78.0396
2019-04-20T00:20:04.698Z,77.8320
2019-04-20T00:20:15.510Z,77.7283
2019-04-20T00:20:23.608Z,77.6245
2019-04-20T00:20:30.661Z,77.6245
2019-04-20T00:20:35.880Z,77.6245
2019-04-20T00:20:42.211Z,77.5208
2019-04-20T00:20:49.378Z,77.5208
2019-04-20T00:21:00.283Z,77.4170
2019-04-20T00:21:05.610Z,77.3132
2019-04-20T00:21:13.263Z,77.2156
2019-04-20T00:21:19.214Z,77.3132
2019-04-20T00:21:24.762Z,77.5208
2019-04-20T00:21:29.112Z,77.6245
2019-04-20T00:21:33.922Z,77.8320
2019-04-20T00:21:42.708Z,77.9358
2019-04-20T00:21:53.699Z,78.1433
2019-04-20T00:22:00.321Z,78.4485
2019-04-20T00:22:06.681Z,78.6560
2019-04-20T00:22:14.890Z,78.8635
2019-04-20T00:22:20.051Z,79.0039
2019-04-20T00:22:34.167Z,79.1077
2019-04-20T00:22:41.107Z,79.2114
2019-04-20T00:22:48.606Z,79.2114
2019-04-20T00:22:53.296Z,79.2114
2019-04-20T00:22:58.219Z,79.3091
2019-04-20T00:23:01.759Z,79.4128
2019-04-20T00:23:05.937Z,79.5166
2019-04-20T00:23:12.415Z,79.7241
2019-04-20T00:23:23.786Z,80.0354
2019-04-20T00:23:33.442Z,80.2368
2019-04-20T00:23:38.381Z,80.3406
2019-04-20T00:23:45.368Z,80.3406
2019-04-20T00:23:51.445Z,80.4443
2019-04-20T00:23:56.604Z,80.4443
2019-04-20T00:24:03.014Z,80.4443
2019-04-20T00:24:14.803Z,80.4443
2019-04-20T00:24:24.751Z,80.5481
2019-04-20T00:24:30.139Z,80.5481
2019-04-20T00:24:35.885Z,80.5481
2019-04-20T00:24:42.297Z,80.5481
2019-04-20T00:24:49.631Z,80.5481
2019-04-20T00:24:58.119Z,80.6519
2019-04-20T00:25:07.113Z,80.7556
2019-04-20T00:25:15.993Z,80.8594
2019-04-20T00:25:23.354Z,80.9631
2019-04-20T00:25:42.936Z,81.0669
2019-04-20T00:25:47.202Z,81.1707
2019-04-20T00:25:54.386Z,81.2683
2019-04-20T00:26:02.633Z,81.3721
2019-04-20T00:26:10.875Z,81.6833
2019-04-20T00:26:17.342Z,82.0312
2019-04-20T00:26:26.535Z,82.2388
2019-04-20T00:26:56.181Z,82.4463
2019-04-20T00:27:04.469Z,82.5500
2019-04-20T00:27:09.170Z,82.6477
2019-04-20T00:27:13.696Z,82.7515
2019-04-20T00:27:18.198Z,82.6477
2019-04-20T00:27:25.709Z,82.7515
2019-04-20T00:27:39.762Z,82.7515
2019-04-20T00:27:45.748Z,82.8552
2019-04-20T00:27:51.037Z,82.7515
2019-04-20T00:27:59.529Z,82.7515
2019-04-20T00:28:04.800Z,82.7942
2019-04-20T00:28:13.063Z,82.7942
2019-04-20T00:28:19.850Z,82.8918
2019-04-20T00:28:31.979Z,82.8918
2019-04-20T00:28:39.867Z,82.9956
2019-04-20T00:28:47.379Z,82.9956
2019-04-20T00:28:56.197Z,82.9956
2019-04-20T00:28:58.939Z,82.9956
2019-04-20T00:29:13.856Z,82.9956
2019-04-20T00:29:25.362Z,82.8918
2019-04-20T00:29:38.269Z,82.8918
2019-04-20T00:29:46.599Z,82.8918
2019-04-20T00:29:49.912Z,82.8918
2019-04-20T00:29:58.740Z,82.7942
2019-04-20T00:30:06.673Z,82.7942
2019-04-20T00:30:23.902Z,82.6904
2019-04-20T00:30:28.327Z,82.7942
2019-04-20T00:30:32.435Z,82.7942
2019-04-20T00:30:43.819Z,82.7942
2019-04-20T00:30:50.431Z,82.8918
2019-04-20T00:31:01.155Z,82.8918
2019-04-20T00:31:07.205Z,82.9956
2019-04-20T00:31:12.380Z,83.0994
2019-04-20T00:31:22.218Z,83.2031
2019-04-20T00:31:26.731Z,83.2031
2019-04-20T00:31:39.221Z,83.3069
2019-04-20T00:31:45.847Z,83.4106
2019-04-20T00:31:50.419Z,83.5144
2019-04-20T00:32:00.584Z,83.5144
2019-04-20T00:32:06.069Z,83.6182
2019-04-20T00:32:15.575Z,83.6182
2019-04-20T00:32:20.904Z,83.5144
2019-04-20T00:32:42.573Z,83.4106
2019-04-20T00:32:50.020Z,83.4106
2019-04-20T00:32:55.603Z,83.4106
2019-04-20T00:33:03.533Z,83.5144
2019-04-20T00:33:09.535Z,83.5144
2019-04-20T00:33:25.625Z,83.6182
2019-04-20T00:33:32.380Z,83.6182
2019-04-20T00:33:41.007Z,83.7219
2019-04-20T00:33:46.906Z,83.7219
2019-04-20T00:33:53.714Z,83.7219
2019-04-20T00:33:59.473Z,83.8257
2019-04-20T00:34:07.998Z,83.8257
2019-04-20T00:34:13.887Z,83.9294
2019-04-20T00:34:21.102Z,83.9294
2019-04-20T00:34:29.517Z,84.0698
2019-04-20T00:34:33.788Z,84.1309
2019-04-20T00:34:41.627Z,84.2773
2019-04-20T00:34:49.004Z,84.3811
2019-04-20T00:34:54.060Z,84.4849
2019-04-20T00:34:57.993Z,84.4849
2019-04-20T00:35:02.211Z,84.4849
2019-04-20T00:35:04.444Z,84.4849
2019-04-20T00:35:08.212Z,84.4849
2019-04-20T00:35:12.393Z,84.4849
2019-04-20T00:35:16.883Z,84.5886
2019-04-20T00:35:20.907Z,84.5886
2019-04-20T00:35:25.142Z,84.5886
2019-04-20T00:35:29.328Z,84.6863
2019-04-20T00:35:33.795Z,84.6863
2019-04-20T00:35:38.004Z,84.7900
2019-04-20T00:35:42.112Z,84.7900
2019-04-20T00:35:46.334Z,84.7900
2019-04-20T00:35:50.374Z,84.8938
2019-04-20T00:35:54.834Z,84.8938
2019-04-20T00:35:58.962Z,84.8938
2019-04-20T00:36:03.230Z,84.9976
2019-04-20T00:36:07.399Z,84.9976
2019-04-20T00:36:11.770Z,84.9976
2019-04-20T00:36:16.090Z,84.9976
2019-04-20T00:36:20.140Z,85.1013
2019-04-20T00:36:24.287Z,85.1013
2019-04-20T00:36:28.980Z,85.1013
2019-04-20T00:36:32.865Z,85.2051
2019-04-20T00:36:36.978Z,85.2051
2019-04-20T00:36:41.154Z,85.2051
2019-04-20T00:36:45.319Z,85.3088
2019-04-20T00:36:49.730Z,85.3088
2019-04-20T00:36:54.025Z,85.3088
2019-04-20T00:36:58.118Z,85.3088
2019-04-20T00:37:02.307Z,85.4126
2019-04-20T00:37:06.996Z,85.4126
2019-04-20T00:37:10.803Z,85.5164
2019-04-20T00:37:15.069Z,85.5164
2019-04-20T00:37:19.267Z,85.6201
2019-04-20T00:37:23.331Z,85.7239
2019-04-20T00:37:27.744Z,85.8276
2019-04-20T00:37:31.921Z,85.9314
2019-04-20T00:37:35.982Z,85.9314
2019-04-20T00:37:40.217Z,86.0291
2019-04-20T00:37:44.484Z,86.0291
2019-04-20T00:37:48.783Z,86.1328
2019-04-20T00:37:52.868Z,86.1328
2019-04-20T00:37:57.070Z,86.1328
2019-04-20T00:38:01.234Z,86.1328
2019-04-20T00:38:05.637Z,86.1328
2019-04-20T00:38:09.852Z,86.1328
2019-04-20T00:38:13.996Z,86.1328
2019-04-20T00:38:18.065Z,86.1328
2019-04-20T00:38:21.561Z,86.1328
2019-04-20T00:38:32.520Z,86.1328
2019-04-20T00:38:40.845Z,86.0291
2019-04-20T00:38:48.622Z,86.0291
2019-04-20T00:38:56.356Z,86.0291
2019-04-20T00:39:02.624Z,85.9314
2019-04-20T00:39:09.862Z,85.9314
2019-04-20T00:39:17.176Z,85.9314
2019-04-20T00:39:23.805Z,85.8276
2019-04-20T00:39:28.009Z,85.8276
2019-04-20T00:39:32.098Z,85.7849
2019-04-20T00:39:36.129Z,85.8276
2019-04-20T00:39:40.534Z,85.7849
2019-04-20T00:39:44.781Z,85.7849
2019-04-20T00:39:48.847Z,85.7849
2019-04-20T00:39:53.005Z,85.6812
2019-04-20T00:39:57.753Z,85.6812
2019-04-20T00:40:01.647Z,85.6812
2019-04-20T00:40:05.753Z,85.6812
2019-04-20T00:40:09.901Z,85.6812
2019-04-20T00:40:13.156Z,85.6812
2019-04-20T00:40:17.109Z,85.6812
2019-04-20T00:40:21.782Z,85.6812
2019-04-20T00:40:25.628Z,85.5774
2019-04-20T00:40:28.874Z,85.5774
2019-04-20T00:40:32.681Z,85.5774
2019-04-20T00:40:37.272Z,85.5774
2019-04-20T00:40:41.267Z,85.4736
2019-04-20T00:40:45.508Z,85.4736
2019-04-20T00:40:56.142Z,85.4736
2019-04-20T00:41:07.534Z,85.4736
2019-04-20T00:41:14.251Z,85.4736
2019-04-20T00:41:22.102Z,85.4736
2019-04-20T00:41:25.879Z,85.4736
2019-04-20T00:41:29.725Z,85.3699
2019-04-20T00:41:34.076Z,85.3699
2019-04-20T00:41:48.994Z,85.3699
2019-04-20T00:41:57.789Z,85.3699
2019-04-20T00:42:03.470Z,85.3699
2019-04-20T00:42:09.622Z,85.2722
2019-04-20T00:42:16.324Z,85.2722
2019-04-20T00:42:32.442Z,85.1685
2019-04-20T00:42:37.966Z,85.1685
2019-04-20T00:42:45.199Z,85.1685
2019-04-20T00:42:51.991Z,85.0647
2019-04-20T00:42:58.174Z,85.0647
2019-04-20T00:43:03.483Z,85.0647
2019-04-20T00:43:08.729Z,85.1685
2019-04-20T00:43:19.422Z,85.1685
2019-04-20T00:43:29.132Z,85.1685
2019-04-20T00:43:32.870Z,85.1685
2019-04-20T00:43:40.244Z,85.1685
2019-04-20T00:43:47.052Z,85.1685
2019-04-20T00:43:51.148Z,85.1685
2019-04-20T00:43:57.779Z,85.1685
2019-04-20T00:44:07.218Z,85.1685
2019-04-20T00:44:17.374Z,85.0647
2019-04-20T00:44:26.263Z,85.0647
2019-04-20T00:44:31.726Z,84.9609
2019-04-20T00:44:38.073Z,84.7534
2019-04-20T00:44:45.808Z,84.6497
2019-04-20T00:45:01.047Z,84.5459
2019-04-20T00:45:05.871Z,84.5459
2019-04-20T00:45:15.955Z,84.5459
2019-04-20T00:45:21.977Z,84.4421
2019-04-20T00:45:29.506Z,84.4421
2019-04-20T00:45:35.234Z,84.3384
2019-04-20T00:45:46.922Z,84.3018
2019-04-20T00:45:53.759Z,84.1980
2019-04-20T00:46:01.994Z,84.0942
2019-04-20T00:46:08.267Z,84.0942
2019-04-20T00:46:27.893Z,84.0942
2019-04-20T00:46:39.720Z,84.0942
2019-04-20T00:46:53.187Z,84.0942
2019-04-20T00:47:01.004Z,83.8867
2019-04-20T00:47:08.590Z,83.7830
2019-04-20T00:47:16.996Z,83.6792
2019-04-20T00:47:25.315Z,83.5815
2019-04-20T00:47:34.218Z,83.4778
2019-04-20T00:47:37.357Z,83.3740
2019-04-20T00:47:47.839Z,83.1665
2019-04-20T00:47:54.244Z,83.1665
2019-04-20T00:47:59.572Z,83.0627
2019-04-20T00:48:08.104Z,82.9590
2019-04-20T00:48:22.573Z,82.8552
2019-04-20T00:48:27.201Z,82.8552
2019-04-20T00:48:38.955Z,82.7515
2019-04-20T00:48:46.255Z,82.7515
2019-04-20T00:48:51.917Z,82.7515
2019-04-20T00:48:58.990Z,82.7515
2019-04-20T00:49:14.960Z,82.6477
2019-04-20T00:49:26.840Z,82.6477
2019-04-20T00:49:30.675Z,82.6477
2019-04-20T00:49:41.346Z,82.6477
2019-04-20T00:49:45.765Z,82.6477
2019-04-20T00:49:55.056Z,82.6477
2019-04-20T00:50:00.928Z,82.5867
2019-04-20T00:50:13.955Z,82.5867
2019-04-20T00:50:24.496Z,82.5867
2019-04-20T00:50:29.889Z,82.5867
2019-04-20T00:50:36.727Z,82.5867
2019-04-20T00:50:46.984Z,82.5867
2019-04-20T00:50:49.136Z,82.5867
2019-04-20T00:50:59.268Z,82.6904
2019-04-20T00:51:17.326Z,82.6904
2019-04-20T00:51:26.245Z,82.6904
2019-04-20T00:51:35.248Z,82.5867
2019-04-20T00:51:49.382Z,82.5867
2019-04-20T00:51:51.555Z,82.6233
2019-04-20T00:52:13.060Z,82.6233
2019-04-20T00:52:18.690Z,82.6233
2019-04-20T00:52:27.549Z,82.7271
2019-04-20T00:52:30.960Z,82.8308
2019-04-20T00:52:43.760Z,82.8308
2019-04-20T00:52:51.519Z,82.9346
2019-04-20T00:52:55.768Z,83.0383
2019-04-20T00:53:04.630Z,83.1421
2019-04-20T00:53:12.397Z,83.2458
2019-04-20T00:53:21.763Z,83.2458
2019-04-20T00:53:28.460Z,83.2458
2019-04-20T00:53:34.286Z,83.3435
2019-04-20T00:53:39.690Z,83.3435
2019-04-20T00:53:46.756Z,83.3435
2019-04-20T00:53:55.244Z,83.3435
2019-04-20T00:54:00.859Z,83.4473
2019-04-20T00:54:07.255Z,83.4473
2019-04-20T00:54:11.512Z,83.4473
2019-04-20T00:54:16.019Z,83.4473
2019-04-20T00:54:20.127Z,83.5510
2019-04-20T00:54:24.331Z,83.5510
2019-04-20T00:54:28.419Z,83.5510
2019-04-20T00:54:32.589Z,83.5510
2019-04-20T00:54:36.928Z,83.5510
2019-04-20T00:54:41.250Z,83.5510
2019-04-20T00:54:45.318Z,83.5510
2019-04-20T00:54:49.460Z,83.5510
2019-04-20T00:54:53.908Z,83.5510
2019-04-20T00:54:58.127Z,83.5510
2019-04-20T00:55:02.360Z,83.5510
2019-04-20T00:55:06.330Z,83.5510
2019-04-20T00:55:10.467Z,83.5510
2019-04-20T00:55:14.924Z,83.5510
2019-04-20T00:55:19.117Z,83.5510
2019-04-20T00:55:23.193Z,83.5510
2019-04-20T00:55:27.307Z,83.5510
2019-04-20T00:55:31.762Z,83.5510
2019-04-20T00:55:36.080Z,83.5510
2019-04-20T00:55:40.168Z,83.5510
2019-04-20T00:55:44.424Z,83.5510
2019-04-20T00:55:48.570Z,83.6548
2019-04-20T00:55:52.979Z,83.6548
2019-04-20T00:55:57.105Z,83.6548
2019-04-20T00:56:01.284Z,83.6548
2019-04-20T00:56:05.484Z,83.7585
2019-04-20T00:56:09.993Z,83.7585
2019-04-20T00:56:14.095Z,83.7585
2019-04-20T00:56:18.222Z,83.7585
2019-04-20T00:56:22.354Z,83.7585
2019-04-20T00:56:26.511Z,83.7585
2019-04-20T00:56:30.966Z,83.8623
2019-04-20T00:56:35.123Z,83.8623
2019-04-20T00:56:39.289Z,83.8623
2019-04-20T00:56:43.375Z,83.8623
2019-04-20T00:56:47.827Z,83.8623
2019-04-20T00:56:53.186Z,83.8623
2019-04-20T00:57:12.045Z,83.8623
2019-04-20T00:57:17.957Z,83.7585
2019-04-20T00:57:24.683Z,83.7585
2019-04-20T00:57:34.592Z,83.7585
2019-04-20T00:57:41.854Z,83.7585
2019-04-20T00:57:48.694Z,83.7585
2019-04-20T00:57:56.326Z,83.7585
2019-04-20T00:58:08.410Z,83.7585
2019-04-20T00:58:16.202Z,83.7585
2019-04-20T00:58:20.163Z,83.7585
2019-04-20T00:58:28.796Z,83.7585
2019-04-20T00:58:41.041Z,83.7585
2019-04-20T00:58:52.191Z,83.8623
2019-04-20T00:58:55.792Z,83.8623
2019-04-20T00:59:09.190Z,83.8623
2019-04-20T00:59:16.796Z,83.8623
2019-04-20T00:59:24.111Z,83.9661
2019-04-20T00:59:31.604Z,84.0698
2019-04-20T00:59:50.763Z,84.1736
2019-04-20T00:59:59.173Z,84.1736
2019-04-20T01:00:08.471Z,84.2773
2019-04-20T01:00:14.762Z,84.3811
2019-04-20T01:00:16.403Z,84.4849
2019-04-20T01:00:29.929Z,84.4849
2019-04-20T01:00:39.782Z,84.5886
2019-04-20T01:00:40.546Z,84.5886
2019-04-20T01:01:00.406Z,84.6863
2019-04-20T01:01:06.952Z,84.7900
2019-04-20T01:01:20.492Z,84.9976
2019-04-20T01:01:24.804Z,84.8938
2019-04-20T01:01:25.204Z,84.9976
2019-04-20T01:01:37.822Z,85.1013
2019-04-20T01:01:43.999Z,85.1013
2019-04-20T01:01:52.126Z,85.2051
2019-04-20T01:02:02.048Z,85.2051
2019-04-20T01:02:03.626Z,85.3088
2019-04-20T01:02:12.588Z,85.3088
2019-04-20T01:02:20.844Z,85.3088
2019-04-20T01:02:26.151Z,85.4126
2019-04-20T01:02:38.361Z,85.4126
2019-04-20T01:02:41.912Z,85.4126
2019-04-20T01:02:53.285Z,85.4126
2019-04-20T01:03:02.616Z,85.5164
2019-04-20T01:03:09.831Z,85.5164
2019-04-20T01:03:21.502Z,85.5164
2019-04-20T01:03:27.752Z,85.6201
2019-04-20T01:03:36.275Z,85.5530
2019-04-20T01:03:43.530Z,85.5164
2019-04-20T01:03:52.197Z,85.5164
2019-04-20T01:04:05.511Z,85.5530
2019-04-20T01:04:10.774Z,85.5530
2019-04-20T01:04:20.451Z,85.5530
2019-04-20T01:04:25.498Z,85.5164
2019-04-20T01:04:38.894Z,85.5530
2019-04-20T01:04:49.341Z,85.5164
2019-04-20T01:04:54.589Z,85.5164
2019-04-20T01:05:00.450Z,85.5164
2019-04-20T01:05:11.101Z,85.4126
2019-04-20T01:05:19.980Z,85.4126
2019-04-20T01:05:23.322Z,85.3088
2019-04-20T01:05:27.593Z,85.2051
2019-04-20T01:05:46.444Z,85.1013
2019-04-20T01:05:55.735Z,84.9976
2019-04-20T01:06:08.281Z,84.9976
2019-04-20T01:06:12.063Z,84.9976
2019-04-20T01:06:19.244Z,84.9976
2019-04-20T01:06:28.815Z,84.9976
2019-04-20T01:06:31.551Z,84.8938
2019-04-20T01:06:42.513Z,84.8938
2019-04-20T01:06:49.195Z,84.8938
2019-04-20T01:06:53.961Z,84.7900
2019-04-20T01:07:01.543Z,84.6863
2019-04-20T01:07:11.657Z,84.6863
2019-04-20T01:07:20.266Z,84.5886
2019-04-20T01:07:27.355Z,84.4849
2019-04-20T01:07:32.881Z,84.3811
2019-04-20T01:07:41.014Z,84.2773
2019-04-20T01:07:46.828Z,84.2773
2019-04-20T01:07:53.514Z,84.1736
2019-04-20T01:08:00.556Z,84.0698
2019-04-20T01:08:06.985Z,83.9661
2019-04-20T01:08:12.855Z,83.8257
2019-04-20T01:08:17.133Z,83.8623
2019-04-20T01:08:21.255Z,83.7585
2019-04-20T01:08:25.474Z,83.7585
2019-04-20T01:08:29.647Z,83.6548
2019-04-20T01:08:34.052Z,83.6182
2019-04-20T01:08:38.061Z,83.6182
2019-04-20T01:08:42.247Z,83.5144
2019-04-20T01:08:46.402Z,83.5144
2019-04-20T01:08:50.824Z,83.4106
2019-04-20T01:08:55.335Z,83.3069
2019-04-20T01:08:59.245Z,83.3069
2019-04-20T01:09:03.366Z,83.2031
2019-04-20T01:09:07.431Z,83.0994
2019-04-20T01:09:11.864Z,83.0994
2019-04-20T01:09:16.027Z,82.9956
2019-04-20T01:09:20.315Z,82.8918
2019-04-20T01:09:24.616Z,82.7942
2019-04-20T01:09:28.796Z,82.7942
2019-04-20T01:09:33.034Z,82.6904
2019-04-20T01:09:37.064Z,82.6477
2019-04-20T01:09:41.290Z,82.5500
2019-04-20T01:09:45.459Z,82.5500
2019-04-20T01:09:49.878Z,82.4463
2019-04-20T01:09:54.241Z,82.4463
2019-04-20T01:09:58.350Z,82.2388
2019-04-20T01:10:02.676Z,82.1350
2019-04-20T01:10:07.037Z,82.0312
2019-04-20T01:10:11.031Z,82.0312
2019-04-20T01:10:17.380Z,81.9275
2019-04-20T01:10:21.614Z,81.8237
2019-04-20T01:10:28.312Z,81.7200
2019-04-20T01:10:38.443Z,81.7200
2019-04-20T01:10:47.248Z,81.6162
2019-04-20T01:10:53.305Z,81.5125
2019-04-20T01:10:59.902Z,81.4148
2019-04-20T01:11:04.336Z,81.4148
2019-04-20T01:11:08.220Z,81.3110
2019-04-20T01:11:12.336Z,81.3110
2019-04-20T01:11:16.767Z,81.2073
2019-04-20T01:11:30.946Z,81.2073
2019-04-20T01:11:38.416Z,81.3110
2019-04-20T01:11:45.176Z,81.3110
2019-04-20T01:11:51.305Z,81.3110
2019-04-20T01:11:56.589Z,81.4148
2019-04-20T01:12:03.218Z,81.4148
2019-04-20T01:12:13.652Z,81.5125
2019-04-20T01:12:22.553Z,81.6162
2019-04-20T01:12:28.528Z,81.7200
2019-04-20T01:12:34.945Z,81.8237
2019-04-20T01:12:42.463Z,81.8237
2019-04-20T01:12:52.060Z,81.7200
2019-04-20T01:13:01.172Z,81.5125
2019-04-20T01:13:11.663Z,80.8960
2019-04-20T01:13:17.334Z,80.6885
2019-04-20T01:13:23.838Z,80.4810
2019-04-20T01:13:28.796Z,80.4810
2019-04-20T01:13:44.388Z,80.5847
2019-04-20T01:13:48.783Z,80.6885
2019-04-20T01:13:55.378Z,80.9998
2019-04-20T01:14:03.062Z,81.2073
2019-04-20T01:14:12.523Z,81.3110
2019-04-20T01:14:21.077Z,81.5125
2019-04-20T01:14:37.771Z,81.7200
2019-04-20T01:14:55.228Z,81.8237
2019-04-20T01:15:01.061Z,82.4463
2019-04-20T01:15:08.000Z,82.6477
2019-04-20T01:15:23.116Z,82.5500
2019-04-20T01:15:31.932Z,82.1350
2019-04-20T01:15:37.522Z,81.8237
2019-04-20T01:15:47.372Z,81.6162
2019-04-20T01:15:51.586Z,81.3110
2019-04-20T01:16:01.823Z,80.6885
2019-04-20T01:16:10.814Z,80.0720
2019-04-20T01:16:26.789Z,79.6570
2019-04-20T01:16:32.012Z,79.4495
2019-04-20T01:16:36.592Z,79.3091
2019-04-20T01:16:44.037Z,79.2114
2019-04-20T01:16:51.316Z,79.1077
2019-04-20T01:16:58.853Z,79.1077
2019-04-20T01:17:07.200Z,79.1077
2019-04-20T01:17:12.048Z,79.1077
2019-04-20T01:17:16.328Z,79.1077
2019-04-20T01:17:19.521Z,79.1077
2019-04-20T01:17:23.419Z,79.1077
2019-04-20T01:17:26.669Z,79.1077
2019-04-20T01:17:29.891Z,79.1077
2019-04-20T01:17:33.092Z,79.2114
2019-04-20T01:17:37.764Z,79.2114
2019-04-20T01:17:44.433Z,79.2114
2019-04-20T01:17:48.441Z,79.2114
2019-04-20T01:17:52.234Z,79.3091
2019-04-20T01:17:56.431Z,79.3091
2019-04-20T01:18:00.493Z,79.4128
2019-04-20T01:18:02.886Z,79.5166
2019-04-20T01:18:06.857Z,79.5166
2019-04-20T01:18:13.997Z,79.5166
2019-04-20T01:18:18.302Z,79.6204
2019-04-20T01:18:21.498Z,79.7241
2019-04-20T01:18:24.752Z,79.8279
2019-04-20T01:18:27.983Z,79.8279
2019-04-20T01:18:31.143Z,79.9316
2019-04-20T01:18:34.407Z,80.0354
2019-04-20T01:18:37.574Z,80.1392
2019-04-20T01:18:43.701Z,80.1392
2019-04-20T01:18:48.945Z,80.2368
2019-04-20T01:18:52.163Z,80.2368
2019-04-20T01:18:55.502Z,80.2368
2019-04-20T01:18:58.712Z,80.3406
2019-04-20T01:19:01.902Z,80.3406
2019-04-20T01:19:05.092Z,80.3406
2019-04-20T01:19:08.296Z,80.3406
2019-04-20T01:19:11.490Z,80.3406
2019-04-20T01:19:15.791Z,80.3406
2019-04-20T01:19:22.082Z,80.3406
2019-04-20T01:19:25.242Z,80.4443
2019-04-20T01:19:28.405Z,80.4443
2019-04-20T01:19:31.582Z,80.4443